sensor_id;sensor_type;location;lat;lon;timestamp;temperature;humidity
76299;DHT22;65236;42.332;23.550;2023-01-29T00:02:04;-0.50;79.96
76299;DHT22;65236;42.332;23.550;2023-01-29T00:04:29;-0.48;80.15
76299;DHT22;65236;42.332;23.550;2023-01-29T00:06:54;-0.54;79.66
76299;DHT22;65236;42.332;23.550;2023-01-29T00:09:20;-0.49;79.95
76299;DHT22;65236;42.332;23.550;2023-01-29T00:11:45;-0.42;79.31
76299;DHT22;65236;42.332;23.550;2023-01-29T00:14:11;-0.42;80.22
76299;DHT22;65236;42.332;23.550;2023-01-29T00:16:36;-0.42;79.33
76299;DHT22;65236;42.332;23.550;2023-01-29T00:19:01;-0.33;79.10
76299;DHT22;65236;42.332;23.550;2023-01-29T00:21:27;-0.32;78.62
76299;DHT22;65236;42.332;23.550;2023-01-29T00:23:54;-0.22;78.20
76299;DHT22;65236;42.332;23.550;2023-01-29T00:26:20;-0.22;77.91
76299;DHT22;65236;42.332;23.550;2023-01-29T00:28:45;-0.32;77.68
76299;DHT22;65236;42.332;23.550;2023-01-29T00:31:11;-0.22;77.64
76299;DHT22;65236;42.332;23.550;2023-01-29T00:33:37;-0.28;77.49
76299;DHT22;65236;42.332;23.550;2023-01-29T00:36:06;-0.25;77.61
76299;DHT22;65236;42.332;23.550;2023-01-29T00:38:32;-0.12;77.74
76299;DHT22;65236;42.332;23.550;2023-01-29T00:41:05;-0.14;77.02
76299;DHT22;65236;42.332;23.550;2023-01-29T00:43:48;-0.21;76.69
76299;DHT22;65236;42.332;23.550;2023-01-29T00:46:32;-0.35;77.14
76299;DHT22;65236;42.332;23.550;2023-01-29T00:48:58;-0.37;77.18
76299;DHT22;65236;42.332;23.550;2023-01-29T00:51:23;-0.35;77.36
76299;DHT22;65236;42.332;23.550;2023-01-29T00:53:48;-0.29;77.04
76299;DHT22;65236;42.332;23.550;2023-01-29T00:56:13;-0.29;76.94
76299;DHT22;65236;42.332;23.550;2023-01-29T00:58:39;-0.36;77.62
76299;DHT22;65236;42.332;23.550;2023-01-29T01:01:04;-0.32;77.35
76299;DHT22;65236;42.332;23.550;2023-01-29T01:03:29;-0.39;76.93
76299;DHT22;65236;42.332;23.550;2023-01-29T01:06:03;-0.28;77.34
76299;DHT22;65236;42.332;23.550;2023-01-29T01:08:28;-0.29;77.08
76299;DHT22;65236;42.332;23.550;2023-01-29T01:11:14;-0.26;77.09
76299;DHT22;65236;42.332;23.550;2023-01-29T01:13:39;-0.29;76.62
76299;DHT22;65236;42.332;23.550;2023-01-29T01:16:12;-0.32;76.40
76299;DHT22;65236;42.332;23.550;2023-01-29T01:18:37;-0.43;76.99
76299;DHT22;65236;42.332;23.550;2023-01-29T01:21:03;-0.53;77.92
76299;DHT22;65236;42.332;23.550;2023-01-29T01:23:28;-0.43;78.57
76299;DHT22;65236;42.332;23.550;2023-01-29T01:25:53;-0.35;77.53
76299;DHT22;65236;42.332;23.550;2023-01-29T01:28:19;-0.23;77.35
76299;DHT22;65236;42.332;23.550;2023-01-29T01:30:44;-0.16;76.78
76299;DHT22;65236;42.332;23.550;2023-01-29T01:33:10;-0.09;76.69
76299;DHT22;65236;42.332;23.550;2023-01-29T01:35:36;-0.09;76.74
76299;DHT22;65236;42.332;23.550;2023-01-29T01:38:02;-0.11;76.65
76299;DHT22;65236;42.332;23.550;2023-01-29T01:40:27;-0.09;76.81
76299;DHT22;65236;42.332;23.550;2023-01-29T01:42:53;-0.01;76.67
76299;DHT22;65236;42.332;23.550;2023-01-29T01:48:04;-0.25;76.60
76299;DHT22;65236;42.332;23.550;2023-01-29T01:50:34;-0.22;78.35
76299;DHT22;65236;42.332;23.550;2023-01-29T01:53:21;-0.08;78.90
76299;DHT22;65236;42.332;23.550;2023-01-29T01:55:51;-0.19;77.92
76299;DHT22;65236;42.332;23.550;2023-01-29T01:58:19;-0.29;78.81
76299;DHT22;65236;42.332;23.550;2023-01-29T02:00:46;-0.40;78.62
76299;DHT22;65236;42.332;23.550;2023-01-29T02:03:11;-0.48;78.56
76299;DHT22;65236;42.332;23.550;2023-01-29T02:05:56;-0.54;79.29
76299;DHT22;65236;42.332;23.550;2023-01-29T02:08:46;-0.50;79.20
76299;DHT22;65236;42.332;23.550;2023-01-29T02:11:33;-0.37;79.03
76299;DHT22;65236;42.332;23.550;2023-01-29T02:13:58;-0.43;79.02
76299;DHT22;65236;42.332;23.550;2023-01-29T02:16:23;-0.33;79.06
76299;DHT22;65236;42.332;23.550;2023-01-29T02:18:49;-0.23;78.69
76299;DHT22;65236;42.332;23.550;2023-01-29T02:29:56;-0.19;77.74
76299;DHT22;65236;42.332;23.550;2023-01-29T02:32:28;-0.14;77.80
76299;DHT22;65236;42.332;23.550;2023-01-29T02:37:40;-0.09;77.09
76299;DHT22;65236;42.332;23.550;2023-01-29T02:42:34;-0.32;78.35
76299;DHT22;65236;42.332;23.550;2023-01-29T02:47:57;-0.53;78.75
76299;DHT22;65236;42.332;23.550;2023-01-29T02:56:06;-0.80;78.91
76299;DHT22;65236;42.332;23.550;2023-01-29T02:58:08;-0.80;79.56
76299;DHT22;65236;42.332;23.550;2023-01-29T03:00:36;-0.70;79.45
76299;DHT22;65236;42.332;23.550;2023-01-29T03:04:06;-0.63;79.30
76299;DHT22;65236;42.332;23.550;2023-01-29T03:30:21;-0.21;78.55
76299;DHT22;65236;42.332;23.550;2023-01-29T03:33:08;-0.22;80.18
76299;DHT22;65236;42.332;23.550;2023-01-29T03:35:35;-0.35;81.60
76299;DHT22;65236;42.332;23.550;2023-01-29T03:38:04;-0.46;84.16
76299;DHT22;65236;42.332;23.550;2023-01-29T03:40:33;-0.59;85.42
76299;DHT22;65236;42.332;23.550;2023-01-29T03:53:41;-0.84;86.61
76299;DHT22;65236;42.332;23.550;2023-01-29T03:56:32;-0.85;86.91
76299;DHT22;65236;42.332;23.550;2023-01-29T03:59:01;-0.90;86.59
76299;DHT22;65236;42.332;23.550;2023-01-29T04:01:29;-0.79;87.30
76299;DHT22;65236;42.332;23.550;2023-01-29T04:04:04;-0.83;86.81
76299;DHT22;65236;42.332;23.550;2023-01-29T04:06:34;-0.76;86.95
76299;DHT22;65236;42.332;23.550;2023-01-29T04:09:02;-0.70;87.68
76299;DHT22;65236;42.332;23.550;2023-01-29T04:11:27;-0.70;86.70
76299;DHT22;65236;42.332;23.550;2023-01-29T04:13:53;-0.70;86.79
76299;DHT22;65236;42.332;23.550;2023-01-29T04:16:21;-0.67;86.99
76299;DHT22;65236;42.332;23.550;2023-01-29T04:18:47;-0.62;86.67
76299;DHT22;65236;42.332;23.550;2023-01-29T04:21:13;-0.56;86.87
76299;DHT22;65236;42.332;23.550;2023-01-29T04:23:38;-0.54;86.38
76299;DHT22;65236;42.332;23.550;2023-01-29T04:31:16;-0.50;84.86
76299;DHT22;65236;42.332;23.550;2023-01-29T04:38:59;-0.56;86.26
76299;DHT22;65236;42.332;23.550;2023-01-29T04:41:42;-0.60;86.63
76299;DHT22;65236;42.332;23.550;2023-01-29T04:47:03;-0.60;86.26
76299;DHT22;65236;42.332;23.550;2023-01-29T04:54:51;-0.73;84.42
76299;DHT22;65236;42.332;23.550;2023-01-29T04:57:22;-0.94;84.77
76299;DHT22;65236;42.332;23.550;2023-01-29T05:00:36;-0.91;85.17
76299;DHT22;65236;42.332;23.550;2023-01-29T05:02:36;-1.00;84.95
76299;DHT22;65236;42.332;23.550;2023-01-29T05:05:03;-1.01;85.11
76299;DHT22;65236;42.332;23.550;2023-01-29T05:07:30;-1.08;84.69
76299;DHT22;65236;42.332;23.550;2023-01-29T05:09:57;-1.07;84.60
76299;DHT22;65236;42.332;23.550;2023-01-29T05:12:22;-1.07;85.13
76299;DHT22;65236;42.332;23.550;2023-01-29T05:14:49;-1.08;84.84
76299;DHT22;65236;42.332;23.550;2023-01-29T05:17:16;-1.09;85.34
76299;DHT22;65236;42.332;23.550;2023-01-29T05:19:42;-1.05;85.99
76299;DHT22;65236;42.332;23.550;2023-01-29T05:22:08;-1.05;86.10
76299;DHT22;65236;42.332;23.550;2023-01-29T05:24:34;-1.02;85.05
76299;DHT22;65236;42.332;23.550;2023-01-29T05:26:59;-1.02;85.36
76299;DHT22;65236;42.332;23.550;2023-01-29T05:29:44;-0.94;86.73
76299;DHT22;65236;42.332;23.550;2023-01-29T05:32:10;-0.77;86.86
76299;DHT22;65236;42.332;23.550;2023-01-29T05:34:35;-0.59;86.94
76299;DHT22;65236;42.332;23.550;2023-01-29T05:37:00;-0.49;86.55
76299;DHT22;65236;42.332;23.550;2023-01-29T05:39:26;-0.52;86.46
76299;DHT22;65236;42.332;23.550;2023-01-29T05:41:52;-0.42;86.14
76299;DHT22;65236;42.332;23.550;2023-01-29T05:44:17;-0.32;86.37
76299;DHT22;65236;42.332;23.550;2023-01-29T05:46:42;-0.36;85.32
76299;DHT22;65236;42.332;23.550;2023-01-29T05:49:08;-0.37;85.24
76299;DHT22;65236;42.332;23.550;2023-01-29T05:51:33;-0.48;84.62
76299;DHT22;65236;42.332;23.550;2023-01-29T05:53:59;-0.52;84.98
76299;DHT22;65236;42.332;23.550;2023-01-29T05:56:24;-0.53;85.72
76299;DHT22;65236;42.332;23.550;2023-01-29T05:58:49;-0.56;84.34
76299;DHT22;65236;42.332;23.550;2023-01-29T06:01:19;-0.66;85.72
76299;DHT22;65236;42.332;23.550;2023-01-29T06:03:44;-0.69;85.65
76299;DHT22;65236;42.332;23.550;2023-01-29T06:06:10;-0.73;85.45
76299;DHT22;65236;42.332;23.550;2023-01-29T06:08:35;-0.76;86.10
76299;DHT22;65236;42.332;23.550;2023-01-29T06:11:01;-0.74;86.59
76299;DHT22;65236;42.332;23.550;2023-01-29T06:13:26;-0.73;86.99
76299;DHT22;65236;42.332;23.550;2023-01-29T06:15:52;-0.73;86.68
76299;DHT22;65236;42.332;23.550;2023-01-29T06:18:17;-0.64;88.13
76299;DHT22;65236;42.332;23.550;2023-01-29T06:20:42;-0.52;87.93
76299;DHT22;65236;42.332;23.550;2023-01-29T06:23:07;-0.54;87.52
76299;DHT22;65236;42.332;23.550;2023-01-29T06:25:33;-0.57;87.03
76299;DHT22;65236;42.332;23.550;2023-01-29T06:27:58;-0.62;86.89
76299;DHT22;65236;42.332;23.550;2023-01-29T06:30:24;-0.60;87.03
76299;DHT22;65236;42.332;23.550;2023-01-29T06:32:49;-0.63;87.28
76299;DHT22;65236;42.332;23.550;2023-01-29T06:35:14;-0.56;87.44
76299;DHT22;65236;42.332;23.550;2023-01-29T06:37:40;-0.63;87.19
76299;DHT22;65236;42.332;23.550;2023-01-29T06:40:05;-0.54;87.33
76299;DHT22;65236;42.332;23.550;2023-01-29T06:42:31;-0.52;87.46
76299;DHT22;65236;42.332;23.550;2023-01-29T06:44:56;-0.52;87.87
76299;DHT22;65236;42.332;23.550;2023-01-29T06:47:22;-0.44;87.33
76299;DHT22;65236;42.332;23.550;2023-01-29T06:49:48;-0.30;87.25
76299;DHT22;65236;42.332;23.550;2023-01-29T06:52:13;-0.23;87.39
76299;DHT22;65236;42.332;23.550;2023-01-29T06:54:38;-0.15;87.55
76299;DHT22;65236;42.332;23.550;2023-01-29T06:57:04;-0.05;86.95
76299;DHT22;65236;42.332;23.550;2023-01-29T06:59:29;0.05;86.13
76299;DHT22;65236;42.332;23.550;2023-01-29T07:01:54;0.03;85.97
76299;DHT22;65236;42.332;23.550;2023-01-29T07:04:19;0.09;85.84
76299;DHT22;65236;42.332;23.550;2023-01-29T07:06:45;0.15;85.24
76299;DHT22;65236;42.332;23.550;2023-01-29T07:09:11;0.36;85.92
76299;DHT22;65236;42.332;23.550;2023-01-29T07:11:37;0.53;86.59
76299;DHT22;65236;42.332;23.550;2023-01-29T07:14:03;0.40;85.36
76299;DHT22;65236;42.332;23.550;2023-01-29T07:16:28;0.44;85.43
76299;DHT22;65236;42.332;23.550;2023-01-29T07:18:54;0.56;85.53
76299;DHT22;65236;42.332;23.550;2023-01-29T07:21:20;0.70;85.76
76299;DHT22;65236;42.332;23.550;2023-01-29T07:23:45;0.72;84.67
76299;DHT22;65236;42.332;23.550;2023-01-29T07:26:10;0.62;84.23
76299;DHT22;65236;42.332;23.550;2023-01-29T07:28:39;0.78;84.59
76299;DHT22;65236;42.332;23.550;2023-01-29T07:31:04;0.75;84.11
76299;DHT22;65236;42.332;23.550;2023-01-29T07:33:30;0.75;84.26
76299;DHT22;65236;42.332;23.550;2023-01-29T07:35:55;0.67;84.13
76299;DHT22;65236;42.332;23.550;2023-01-29T07:38:21;0.75;82.91
76299;DHT22;65236;42.332;23.550;2023-01-29T07:40:46;0.57;83.24
76299;DHT22;65236;42.332;23.550;2023-01-29T07:43:12;0.51;83.25
76299;DHT22;65236;42.332;23.550;2023-01-29T07:45:37;0.49;82.62
76299;DHT22;65236;42.332;23.550;2023-01-29T07:48:03;0.53;83.00
76299;DHT22;65236;42.332;23.550;2023-01-29T07:50:30;0.53;83.27
76299;DHT22;65236;42.332;23.550;2023-01-29T07:52:55;0.70;84.35
76299;DHT22;65236;42.332;23.550;2023-01-29T07:55:20;1.02;84.77
76299;DHT22;65236;42.332;23.550;2023-01-29T07:57:46;1.10;83.57
76299;DHT22;65236;42.332;23.550;2023-01-29T08:00:11;1.53;83.78
76299;DHT22;65236;42.332;23.550;2023-01-29T08:02:38;1.91;83.23
76299;DHT22;65236;42.332;23.550;2023-01-29T08:05:03;1.98;81.48
76299;DHT22;65236;42.332;23.550;2023-01-29T08:07:28;2.22;81.22
76299;DHT22;65236;42.332;23.550;2023-01-29T08:09:54;2.39;79.10
76299;DHT22;65236;42.332;23.550;2023-01-29T08:13:25;2.30;78.65
76299;DHT22;65236;42.332;23.550;2023-01-29T08:15:50;2.22;78.69
76299;DHT22;65236;42.332;23.550;2023-01-29T08:18:15;2.39;75.83
76299;DHT22;65236;42.332;23.550;2023-01-29T08:20:41;2.40;77.25
76299;DHT22;65236;42.332;23.550;2023-01-29T08:23:08;2.56;77.10
76299;DHT22;65236;42.332;23.550;2023-01-29T08:25:34;2.83;76.20
76299;DHT22;65236;42.332;23.550;2023-01-29T08:27:59;2.83;74.21
76299;DHT22;65236;42.332;23.550;2023-01-29T08:30:25;2.84;74.06
76299;DHT22;65236;42.332;23.550;2023-01-29T08:32:51;3.11;75.35
76299;DHT22;65236;42.332;23.550;2023-01-29T08:35:16;3.26;73.87
76299;DHT22;65236;42.332;23.550;2023-01-29T08:37:41;3.87;73.38
76299;DHT22;65236;42.332;23.550;2023-01-29T08:40:07;4.18;71.13
76299;DHT22;65236;42.332;23.550;2023-01-29T08:43:34;4.46;70.70
76299;DHT22;65236;42.332;23.550;2023-01-29T08:46:02;4.70;71.33
76299;DHT22;65236;42.332;23.550;2023-01-29T08:48:27;4.81;69.89
76299;DHT22;65236;42.332;23.550;2023-01-29T08:50:56;4.87;67.63
76299;DHT22;65236;42.332;23.550;2023-01-29T08:53:21;5.09;67.69
76299;DHT22;65236;42.332;23.550;2023-01-29T08:55:49;4.87;68.92
76299;DHT22;65236;42.332;23.550;2023-01-29T08:58:14;5.28;64.84
76299;DHT22;65236;42.332;23.550;2023-01-29T09:00:39;5.34;68.64
76299;DHT22;65236;42.332;23.550;2023-01-29T09:03:05;5.60;68.07
76299;DHT22;65236;42.332;23.550;2023-01-29T09:05:31;5.95;68.98
76299;DHT22;65236;42.332;23.550;2023-01-29T09:07:58;5.80;67.39
76299;DHT22;65236;42.332;23.550;2023-01-29T09:10:23;6.41;66.78
76299;DHT22;65236;42.332;23.550;2023-01-29T09:12:48;6.80;63.95
76299;DHT22;65236;42.332;23.550;2023-01-29T09:15:14;6.84;62.35
76299;DHT22;65236;42.332;23.550;2023-01-29T09:17:39;6.75;62.66
76299;DHT22;65236;42.332;23.550;2023-01-29T09:20:05;6.84;63.45
76299;DHT22;65236;42.332;23.550;2023-01-29T09:22:30;7.17;61.56
76299;DHT22;65236;42.332;23.550;2023-01-29T09:24:56;7.22;59.24
76299;DHT22;65236;42.332;23.550;2023-01-29T09:27:21;6.90;60.43
76299;DHT22;65236;42.332;23.550;2023-01-29T09:29:46;6.84;59.41
76299;DHT22;65236;42.332;23.550;2023-01-29T09:32:12;6.60;59.10
76299;DHT22;65236;42.332;23.550;2023-01-29T09:34:37;7.07;59.18
76299;DHT22;65236;42.332;23.550;2023-01-29T09:37:02;6.80;57.12
76299;DHT22;65236;42.332;23.550;2023-01-29T09:39:28;6.43;58.74
76299;DHT22;65236;42.332;23.550;2023-01-29T09:47:10;6.68;57.11
76299;DHT22;65236;42.332;23.550;2023-01-29T09:49:38;6.35;59.94
76299;DHT22;65236;42.332;23.550;2023-01-29T09:52:11;7.01;58.29
76299;DHT22;65236;42.332;23.550;2023-01-29T09:54:48;7.51;55.05
76299;DHT22;65236;42.332;23.550;2023-01-29T09:57:18;7.82;55.97
76299;DHT22;65236;42.332;23.550;2023-01-29T09:59:44;8.03;55.45
76299;DHT22;65236;42.332;23.550;2023-01-29T10:02:15;6.79;58.36
